createdAt,value
2022-10-04T00:01:53.984Z,102291.00
2022-10-04T00:04:32.753Z,102301.00
2022-10-04T00:07:02.163Z,102288.00
2022-10-04T00:09:37.652Z,102295.00
2022-10-04T00:12:05.549Z,102287.00
2022-10-04T00:14:35.490Z,102284.00
2022-10-04T00:17:08.716Z,102293.00
2022-10-04T00:19:40.209Z,102293.00
2022-10-04T00:22:08.390Z,102294.00
2022-10-04T00:24:36.523Z,102284.00
2022-10-04T00:27:11.856Z,102286.00
2022-10-04T00:29:39.613Z,102279.00
2022-10-04T00:32:12.267Z,102271.00
2022-10-04T00:34:47.203Z,102271.00
2022-10-04T00:37:14.442Z,102261.00
2022-10-04T00:39:42.796Z,102262.00
2022-10-04T00:42:09.407Z,102252.00
2022-10-04T00:44:45.816Z,102259.00
2022-10-04T00:47:31.866Z,102265.00
2022-10-04T00:50:06.933Z,102251.00
2022-10-04T00:52:35.512Z,102251.00
2022-10-04T00:55:07.645Z,102243.00
2022-10-04T00:57:46.013Z,102247.00
2022-10-04T01:00:14.998Z,102245.00
2022-10-04T01:02:58.217Z,102237.00
2022-10-04T01:05:27.353Z,102238.00
2022-10-04T01:08:09.823Z,102233.00
2022-10-04T01:10:48.065Z,102235.00
2022-10-04T01:13:14.657Z,102238.00
2022-10-04T01:15:53.473Z,102233.00
2022-10-04T01:18:19.932Z,102235.00
2022-10-04T01:20:52.265Z,102234.00
2022-10-04T01:23:51.125Z,102240.00
2022-10-04T01:26:26.483Z,102228.00
2022-10-04T01:28:53.428Z,102232.00
2022-10-04T01:31:21.105Z,102235.00
2022-10-04T01:33:48.082Z,102227.00
2022-10-04T01:36:14.497Z,102223.00
2022-10-04T01:38:41.699Z,102224.00
2022-10-04T01:41:08.828Z,102210.00
2022-10-04T01:43:37.647Z,102206.00
2022-10-04T01:46:07.491Z,102200.00
2022-10-04T01:48:36.511Z,102197.00
2022-10-04T01:51:07.385Z,102199.00
2022-10-04T01:53:56.810Z,102188.00
2022-10-04T01:56:25.705Z,102174.00
2022-10-04T01:58:53.730Z,102170.00
2022-10-04T02:01:27.497Z,102175.00
2022-10-04T02:04:12.601Z,102161.00
2022-10-04T02:06:40.262Z,102152.00
2022-10-04T02:09:08.327Z,102138.00
2022-10-04T02:11:37.607Z,102136.00
2022-10-04T02:14:05.590Z,102131.00
2022-10-04T02:16:35.903Z,102127.00
2022-10-04T02:19:03.530Z,102122.00
2022-10-04T02:21:30.535Z,102125.00
2022-10-04T02:23:57.298Z,102126.00
2022-10-04T02:26:23.777Z,102106.00
2022-10-04T02:28:51.189Z,102107.00
2022-10-04T02:31:38.374Z,102105.00
2022-10-04T02:34:05.134Z,102102.00
2022-10-04T02:36:33.268Z,102108.00
2022-10-04T02:39:05.130Z,102101.00
2022-10-04T02:41:37.961Z,102095.00
2022-10-04T02:44:16.057Z,102087.00
2022-10-04T02:47:00.993Z,102090.00
2022-10-04T02:49:34.667Z,102083.00
2022-10-04T02:52:07.579Z,102079.00
2022-10-04T02:54:37.984Z,102072.00
2022-10-04T02:57:04.604Z,102070.00
2022-10-04T02:59:35.149Z,102074.00
2022-10-04T03:02:02.344Z,102064.00
2022-10-04T03:04:31.075Z,102060.00
2022-10-04T03:06:59.457Z,102057.00
2022-10-04T03:09:29.910Z,102048.00
2022-10-04T03:11:57.045Z,102055.00
2022-10-04T03:14:25.049Z,102054.00
2022-10-04T03:16:53.780Z,102054.00
2022-10-04T03:19:21.621Z,102046.00
2022-10-04T03:21:50.046Z,102049.00
2022-10-04T03:24:28.780Z,102040.00
2022-10-04T03:26:56.591Z,102037.00
2022-10-04T03:29:27.581Z,102042.00
2022-10-04T03:31:58.282Z,102039.00
2022-10-04T03:34:31.762Z,102027.00
2022-10-04T03:36:59.232Z,102039.00
2022-10-04T03:39:25.647Z,102049.00
2022-10-04T03:41:53.405Z,102034.00
2022-10-04T03:44:21.099Z,102032.00
2022-10-04T03:46:47.730Z,102047.00
2022-10-04T03:49:17.469Z,102046.00
2022-10-04T03:51:46.086Z,102034.00
2022-10-04T03:54:15.699Z,102027.00
2022-10-04T03:56:42.134Z,102032.00
2022-10-04T03:59:10.747Z,102028.00
2022-10-04T04:01:37.813Z,102035.00
2022-10-04T04:04:11.997Z,102025.00
2022-10-04T04:06:44.876Z,102029.00
2022-10-04T04:09:17.820Z,102036.00
2022-10-04T04:11:45.892Z,102034.00
2022-10-04T04:14:13.794Z,102033.00
2022-10-04T04:16:40.442Z,102029.00
2022-10-04T04:19:11.827Z,102038.00
2022-10-04T04:21:38.391Z,102033.00
2022-10-04T04:24:08.441Z,102041.00
2022-10-04T04:26:40.207Z,102034.00
2022-10-04T04:29:06.664Z,102024.00
2022-10-04T04:31:33.124Z,102032.00
2022-10-04T04:34:00.722Z,102034.00
2022-10-04T04:36:31.651Z,102038.00
2022-10-04T04:39:36.507Z,102034.00
2022-10-04T04:42:17.360Z,102047.00
2022-10-04T04:44:54.582Z,102035.00
2022-10-04T04:47:28.963Z,102036.00
2022-10-04T04:49:56.703Z,102029.00
2022-10-04T04:52:26.084Z,102026.00
2022-10-04T04:54:53.144Z,102018.00
2022-10-04T04:57:19.847Z,102016.00
2022-10-04T04:59:48.876Z,102031.00
2022-10-04T05:02:35.184Z,102028.00
2022-10-04T05:05:21.400Z,102027.00
2022-10-04T05:07:48.309Z,102028.00
2022-10-04T05:10:21.423Z,102035.00
2022-10-04T05:12:48.832Z,102031.00
2022-10-04T05:15:15.541Z,102021.00
2022-10-04T05:17:48.059Z,102018.00
2022-10-04T05:20:15.264Z,102022.00
2022-10-04T05:22:45.544Z,102026.00
2022-10-04T05:25:18.899Z,102027.00
2022-10-04T05:27:45.539Z,102020.00
2022-10-04T05:30:22.490Z,102011.00
2022-10-04T05:33:03.180Z,102020.00
2022-10-04T05:35:30.006Z,102014.00
2022-10-04T05:37:56.422Z,102014.00
2022-10-04T05:40:25.887Z,102008.00
2022-10-04T05:42:54.340Z,102009.00
2022-10-04T05:45:29.014Z,102012.00
2022-10-04T05:47:57.263Z,102007.00
2022-10-04T05:50:40.672Z,102005.00
2022-10-04T05:53:14.772Z,102003.00
2022-10-04T05:55:47.535Z,102003.00
2022-10-04T05:58:18.349Z,102003.00
2022-10-04T06:00:53.667Z,101999.00
2022-10-04T06:03:38.523Z,102005.00
2022-10-04T06:06:25.242Z,101993.00
2022-10-04T06:08:59.703Z,101992.00
2022-10-04T06:11:44.995Z,101995.00
2022-10-04T06:14:23.966Z,102001.00
2022-10-04T06:17:29.359Z,101994.00
2022-10-04T06:19:55.873Z,102002.00
2022-10-04T06:22:23.365Z,102004.00
2022-10-04T06:24:52.487Z,102003.00
2022-10-04T06:27:41.686Z,102005.00
2022-10-04T06:30:15.355Z,102013.00
2022-10-04T06:32:44.768Z,102014.00
2022-10-04T06:35:23.330Z,102007.00
2022-10-04T06:37:55.772Z,102011.00
2022-10-04T06:40:37.376Z,102020.00
2022-10-04T06:43:06.787Z,102008.00
2022-10-04T06:45:33.155Z,102009.00
2022-10-04T06:48:08.626Z,102009.00
2022-10-04T06:50:46.705Z,102004.00
2022-10-04T06:53:25.526Z,101991.00
2022-10-04T06:56:05.712Z,101987.00
2022-10-04T06:58:41.260Z,101981.00
2022-10-04T07:01:07.711Z,101971.00
2022-10-04T07:03:39.698Z,101978.00
2022-10-04T07:06:07.770Z,101984.00
2022-10-04T07:08:39.464Z,101978.00
2022-10-04T07:11:13.709Z,101977.00
2022-10-04T07:13:53.488Z,101986.00
2022-10-04T07:16:30.122Z,101983.00
2022-10-04T07:18:56.549Z,101981.00
2022-10-04T07:21:26.265Z,101976.00
2022-10-04T07:23:55.053Z,101987.00
2022-10-04T07:26:41.732Z,101992.00
2022-10-04T07:29:22.911Z,101988.00
2022-10-04T07:31:52.001Z,101996.00
2022-10-04T07:34:22.857Z,102004.00
2022-10-04T07:36:51.876Z,102010.00
2022-10-04T07:39:53.614Z,102003.00
2022-10-04T07:42:25.978Z,102002.00
2022-10-04T07:45:10.986Z,102007.00
2022-10-04T07:47:37.610Z,102004.00
2022-10-04T07:50:22.576Z,101990.00
2022-10-04T07:52:57.661Z,101993.00
2022-10-04T07:55:24.019Z,101997.00
2022-10-04T07:57:50.485Z,101994.00
2022-10-04T08:00:26.669Z,101999.00
2022-10-04T08:03:14.579Z,102003.00
2022-10-04T08:05:59.067Z,101998.00
2022-10-04T08:08:44.210Z,101994.00
2022-10-04T08:11:10.617Z,101996.00
2022-10-04T08:13:43.153Z,101984.00
2022-10-04T08:16:18.572Z,101986.00
2022-10-04T08:18:47.995Z,101975.00
2022-10-04T08:21:16.967Z,101981.00
2022-10-04T08:23:43.555Z,101977.00
2022-10-04T08:26:39.287Z,101983.00
2022-10-04T08:29:27.164Z,101983.00
2022-10-04T08:32:11.605Z,101983.00
2022-10-04T08:34:43.281Z,101981.00
2022-10-04T08:37:28.542Z,101972.00
2022-10-04T08:39:57.817Z,101975.00
2022-10-04T08:42:30.307Z,101981.00
2022-10-04T08:45:02.167Z,101970.00
2022-10-04T08:47:29.404Z,101967.00
2022-10-04T08:50:05.065Z,101964.00
2022-10-04T08:52:45.057Z,101965.00
2022-10-04T08:55:11.882Z,101962.00
2022-10-04T08:57:50.412Z,101956.00
2022-10-04T09:00:20.827Z,101951.00
2022-10-04T09:03:06.250Z,101967.00
2022-10-04T09:05:42.177Z,101958.00
2022-10-04T09:08:11.564Z,101957.00
2022-10-04T09:10:58.262Z,101962.00
2022-10-04T09:13:43.564Z,101961.00
2022-10-04T09:16:22.990Z,101959.00
2022-10-04T09:18:51.384Z,101971.00
2022-10-04T09:21:26.985Z,101951.00
2022-10-04T09:23:55.241Z,101954.00
2022-10-04T09:26:37.138Z,101965.00
2022-10-04T09:29:18.648Z,101960.00
2022-10-04T09:32:03.962Z,101959.00
2022-10-04T09:34:41.948Z,101962.00
2022-10-04T09:37:20.654Z,101950.00
2022-10-04T09:39:47.091Z,101954.00
2022-10-04T09:42:25.789Z,101954.00
2022-10-04T09:45:11.004Z,101960.00
2022-10-04T09:47:41.294Z,101959.00
2022-10-04T09:50:30.055Z,101963.00
2022-10-04T09:53:06.913Z,101963.00
2022-10-04T09:55:51.851Z,101957.00
2022-10-04T09:58:46.310Z,101957.00
2022-10-04T10:01:16.952Z,101953.00
2022-10-04T10:03:47.258Z,101937.00
2022-10-04T10:06:26.299Z,101940.00
2022-10-04T10:09:07.381Z,101942.00
2022-10-04T10:11:55.696Z,101946.00
2022-10-04T10:14:34.099Z,101953.00
2022-10-04T10:17:10.545Z,101955.00
2022-10-04T10:19:36.908Z,101954.00
2022-10-04T10:22:03.265Z,101948.00
2022-10-04T10:24:45.118Z,101948.00
2022-10-04T10:27:37.819Z,101944.00
2022-10-04T10:30:13.158Z,101949.00
2022-10-04T10:32:45.728Z,101952.00
2022-10-04T10:35:31.198Z,101944.00
2022-10-04T10:38:04.822Z,101930.00
2022-10-04T10:40:37.185Z,101933.00
2022-10-04T10:43:06.731Z,101937.00
2022-10-04T10:45:33.153Z,101942.00
2022-10-04T10:48:18.969Z,101947.00
2022-10-04T10:51:03.439Z,101943.00
2022-10-04T10:53:48.806Z,101944.00
2022-10-04T10:56:33.639Z,101944.00
2022-10-04T10:59:00.779Z,101938.00
2022-10-04T11:01:33.204Z,101944.00
2022-10-04T11:04:31.875Z,101951.00
2022-10-04T11:07:07.865Z,101942.00
2022-10-04T11:09:46.620Z,101950.00
2022-10-04T11:12:13.000Z,101952.00
2022-10-04T11:14:58.310Z,101951.00
2022-10-04T11:17:27.576Z,101945.00
2022-10-04T11:20:15.606Z,101951.00
2022-10-04T11:22:44.541Z,101948.00
2022-10-04T11:25:19.559Z,101946.00
2022-10-04T11:27:49.714Z,101952.00
2022-10-04T11:30:24.701Z,101954.00
2022-10-04T11:33:14.167Z,101953.00
2022-10-04T11:35:59.602Z,101949.00
2022-10-04T11:38:35.623Z,101941.00
2022-10-04T11:41:07.321Z,101925.00
2022-10-04T11:43:36.546Z,101932.00
2022-10-04T11:46:14.123Z,101932.00
2022-10-04T11:48:59.284Z,101925.00
2022-10-04T11:51:47.961Z,101930.00
2022-10-04T11:54:28.100Z,101926.00
2022-10-04T11:57:10.447Z,101924.00
2022-10-04T11:59:46.913Z,101913.00
2022-10-04T12:02:32.303Z,101916.00
2022-10-04T12:05:18.625Z,101906.00
2022-10-04T12:07:47.791Z,101901.00
2022-10-04T12:10:17.358Z,101890.00
2022-10-04T12:12:57.606Z,101895.00
2022-10-04T12:15:42.808Z,101899.00
2022-10-04T12:18:45.530Z,101892.00
2022-10-04T12:21:28.959Z,101894.00
2022-10-04T12:24:14.642Z,101902.00
2022-10-04T12:27:00.201Z,101891.00
2022-10-04T12:29:27.726Z,101885.00
2022-10-04T12:32:09.090Z,101876.00
2022-10-04T12:34:36.412Z,101881.00
2022-10-04T12:37:14.266Z,101886.00
2022-10-04T12:39:49.664Z,101880.00
2022-10-04T12:42:16.078Z,101888.00
2022-10-04T12:44:53.027Z,101890.00
2022-10-04T12:47:34.737Z,101886.00
2022-10-04T12:50:19.880Z,101896.00
2022-10-04T12:53:06.386Z,101880.00
2022-10-04T12:55:52.931Z,101876.00
2022-10-04T12:58:30.459Z,101870.00
2022-10-04T13:01:03.070Z,101864.00
2022-10-04T13:03:41.838Z,101873.00
2022-10-04T13:06:21.929Z,101869.00
2022-10-04T13:08:57.719Z,101853.00
2022-10-04T13:11:43.003Z,101846.00
2022-10-04T13:14:15.450Z,101840.00
2022-10-04T13:19:34.922Z,101821.00
2022-10-04T13:22:10.278Z,101825.00
2022-10-04T13:24:55.049Z,101816.00
2022-10-04T13:27:24.555Z,101814.00
2022-10-04T13:30:14.283Z,101816.00
2022-10-04T13:32:48.315Z,101816.00
2022-10-04T13:35:20.756Z,101801.00
2022-10-04T13:37:53.719Z,101800.00
2022-10-04T13:40:23.288Z,101810.00
2022-10-04T13:43:08.517Z,101819.00
2022-10-04T13:45:38.089Z,101814.00
2022-10-04T13:48:23.339Z,101806.00
2022-10-04T13:50:56.436Z,101803.00
2022-10-04T13:53:54.059Z,101810.00
2022-10-04T13:56:43.914Z,101814.00
2022-10-04T13:59:39.434Z,101806.00
2022-10-04T14:02:29.180Z,101802.00
2022-10-04T14:05:10.977Z,101814.00
2022-10-04T14:07:46.890Z,101814.00
2022-10-04T14:10:25.775Z,101804.00
2022-10-04T14:13:10.489Z,101790.00
2022-10-04T14:15:55.544Z,101789.00
2022-10-04T14:18:40.852Z,101792.00
2022-10-04T14:21:19.847Z,101792.00
2022-10-04T14:24:04.974Z,101798.00
2022-10-04T14:26:48.469Z,101800.00
2022-10-04T14:29:34.399Z,101801.00
2022-10-04T14:32:09.807Z,101792.00
2022-10-04T14:34:39.055Z,101801.00
2022-10-04T14:37:21.369Z,101802.00
2022-10-04T14:39:53.658Z,101815.00
2022-10-04T14:42:21.708Z,101804.00
2022-10-04T14:45:00.416Z,101803.00
2022-10-04T14:47:29.850Z,101815.00
2022-10-04T14:50:03.152Z,101814.00
2022-10-04T14:52:53.800Z,101816.00
2022-10-04T14:55:32.316Z,101819.00
2022-10-04T14:58:06.127Z,101812.00
2022-10-04T15:00:49.059Z,101816.00
2022-10-04T15:03:45.363Z,101803.00
2022-10-04T15:06:19.536Z,101801.00
2022-10-04T15:09:18.612Z,101809.00
2022-10-04T15:15:05.479Z,101806.00
2022-10-04T15:17:38.011Z,101804.00
2022-10-04T15:20:20.056Z,101803.00
2022-10-04T15:22:53.154Z,101804.00
2022-10-04T15:25:39.291Z,101809.00
2022-10-04T15:28:14.803Z,101809.00
2022-10-04T15:30:55.989Z,101815.00
2022-10-04T15:33:41.360Z,101807.00
2022-10-04T15:36:22.681Z,101802.00
2022-10-04T15:38:54.064Z,101796.00
2022-10-04T15:41:26.352Z,101793.00
2022-10-04T15:44:14.646Z,101794.00
2022-10-04T15:47:08.904Z,101795.00
2022-10-04T15:50:00.687Z,101792.00
2022-10-04T15:52:47.920Z,101802.00
2022-10-04T15:55:21.600Z,101810.00
2022-10-04T15:57:47.980Z,101818.00
2022-10-04T16:00:22.488Z,101823.00
2022-10-04T16:02:48.944Z,101821.00
2022-10-04T16:05:25.444Z,101821.00
2022-10-04T16:08:05.047Z,101823.00
2022-10-04T16:10:52.254Z,101822.00
2022-10-04T16:13:18.694Z,101829.00
2022-10-04T16:15:50.323Z,101834.00
2022-10-04T16:18:36.455Z,101838.00
2022-10-04T16:21:17.899Z,101833.00
2022-10-04T16:23:45.178Z,101835.00
2022-10-04T16:26:11.653Z,101831.00
2022-10-04T16:28:45.320Z,101839.00
2022-10-04T16:31:20.410Z,101828.00
2022-10-04T16:34:07.198Z,101821.00
2022-10-04T16:36:45.318Z,101842.00
2022-10-04T16:39:31.506Z,101834.00
2022-10-04T16:41:59.809Z,101846.00
2022-10-04T16:44:32.770Z,101846.00
2022-10-04T16:47:01.383Z,101864.00
2022-10-04T16:49:41.292Z,101869.00
2022-10-04T16:52:27.364Z,101872.00
2022-10-04T16:55:03.568Z,101869.00
2022-10-04T16:57:30.440Z,101869.00
2022-10-04T17:00:10.159Z,101871.00
2022-10-04T17:02:43.487Z,101872.00
2022-10-04T17:05:29.597Z,101860.00
2022-10-04T17:08:04.816Z,101864.00
2022-10-04T17:10:40.194Z,101858.00
2022-10-04T17:13:15.062Z,101854.00
2022-10-04T17:15:46.517Z,101855.00
2022-10-04T17:18:39.114Z,101851.00
2022-10-04T17:21:15.485Z,101849.00
2022-10-04T17:23:42.005Z,101849.00
2022-10-04T17:26:28.722Z,101847.00
2022-10-04T17:28:58.188Z,101841.00
2022-10-04T17:31:37.096Z,101832.00
2022-10-04T17:34:09.286Z,101830.00
2022-10-04T17:36:35.829Z,101838.00
2022-10-04T17:39:16.997Z,101838.00
2022-10-04T17:41:46.475Z,101837.00
2022-10-04T17:44:34.266Z,101828.00
2022-10-04T17:47:00.720Z,101838.00
2022-10-04T17:49:54.751Z,101833.00
2022-10-04T17:52:42.078Z,101845.00
2022-10-04T17:55:20.031Z,101847.00
2022-10-04T17:58:05.100Z,101843.00
2022-10-04T18:00:50.344Z,101850.00
2022-10-04T18:03:19.433Z,101848.00
2022-10-04T18:05:48.231Z,101849.00
2022-10-04T18:08:40.303Z,101852.00
2022-10-04T18:11:15.065Z,101851.00
2022-10-04T18:13:50.579Z,101846.00
2022-10-04T18:16:52.646Z,101837.00
2022-10-04T18:19:37.534Z,101833.00
2022-10-04T18:22:10.899Z,101832.00
2022-10-04T18:24:37.428Z,101834.00
2022-10-04T18:27:16.508Z,101830.00
2022-10-04T18:29:44.302Z,101824.00
2022-10-04T18:32:30.121Z,101830.00
2022-10-04T18:34:57.974Z,101826.00
2022-10-04T18:37:33.719Z,101824.00
2022-10-04T18:40:13.803Z,101826.00
2022-10-04T18:42:41.463Z,101823.00
2022-10-04T18:45:21.727Z,101819.00
2022-10-04T18:47:50.823Z,101809.00
2022-10-04T18:50:24.263Z,101809.00
2022-10-04T18:52:59.780Z,101811.00
2022-10-04T18:55:46.324Z,101813.00
2022-10-04T18:58:31.415Z,101805.00
2022-10-04T19:01:26.331Z,101802.00
2022-10-04T19:03:56.831Z,101800.00
2022-10-04T19:06:26.392Z,101799.00
2022-10-04T19:08:58.735Z,101797.00
2022-10-04T19:11:28.190Z,101795.00
2022-10-04T19:14:14.576Z,101797.00
2022-10-04T19:16:55.267Z,101815.00
2022-10-04T19:19:24.541Z,101808.00
2022-10-04T19:21:59.204Z,101808.00
2022-10-04T19:24:31.621Z,101798.00
2022-10-04T19:26:59.879Z,101792.00
2022-10-04T19:29:45.622Z,101798.00
2022-10-04T19:32:23.692Z,101795.00
2022-10-04T19:34:55.945Z,101797.00
2022-10-04T19:37:25.391Z,101798.00
2022-10-04T19:39:54.872Z,101793.00
2022-10-04T19:42:31.584Z,101802.00
2022-10-04T19:45:00.850Z,101802.00
2022-10-04T19:47:39.254Z,101805.00
2022-10-04T19:50:16.967Z,101810.00
2022-10-04T19:53:01.223Z,101813.00
2022-10-04T19:55:43.728Z,101813.00
2022-10-04T19:58:19.625Z,101803.00
2022-10-04T20:00:46.590Z,101811.00
2022-10-04T20:03:13.335Z,101817.00
2022-10-04T20:05:44.073Z,101810.00
2022-10-04T20:08:11.970Z,101819.00
2022-10-04T20:10:39.007Z,101816.00
2022-10-04T20:13:12.428Z,101823.00
2022-10-04T20:15:38.900Z,101817.00
2022-10-04T20:18:23.890Z,101823.00
2022-10-04T20:20:53.402Z,101819.00
2022-10-04T20:23:38.377Z,101820.00
2022-10-04T20:26:08.999Z,101816.00
2022-10-04T20:28:53.434Z,101818.00
2022-10-04T20:31:26.839Z,101811.00
2022-10-04T20:33:53.414Z,101811.00
2022-10-04T20:36:19.826Z,101823.00
2022-10-04T20:38:50.811Z,101810.00
2022-10-04T20:41:29.314Z,101808.00
2022-10-04T20:43:55.715Z,101810.00
2022-10-04T20:46:25.894Z,101807.00
2022-10-04T20:48:54.178Z,101803.00
2022-10-04T20:51:22.729Z,101806.00
2022-10-04T20:53:51.108Z,101798.00
2022-10-04T20:56:29.172Z,101801.00
2022-10-04T20:59:02.010Z,101796.00
2022-10-04T21:01:35.777Z,101798.00
2022-10-04T21:04:34.620Z,101808.00
2022-10-04T21:07:01.285Z,101810.00
2022-10-04T21:09:28.994Z,101800.00
2022-10-04T21:11:56.499Z,101804.00
2022-10-04T21:14:25.828Z,101806.00
2022-10-04T21:17:03.068Z,101797.00
2022-10-04T21:19:32.972Z,101796.00
2022-10-04T21:22:02.190Z,101797.00
2022-10-04T21:24:28.905Z,101804.00
2022-10-04T21:26:56.809Z,101802.00
2022-10-04T21:29:23.292Z,101790.00
2022-10-04T21:31:49.857Z,101797.00
2022-10-04T21:34:34.558Z,101794.00
2022-10-04T21:37:02.769Z,101790.00
2022-10-04T21:39:29.271Z,101773.00
2022-10-04T21:41:55.712Z,101778.00
2022-10-04T21:44:22.128Z,101775.00
2022-10-04T21:46:48.688Z,101771.00
2022-10-04T21:49:15.274Z,101769.00
2022-10-04T21:51:41.716Z,101770.00
2022-10-04T21:54:08.175Z,101776.00
2022-10-04T21:56:34.587Z,101770.00
2022-10-04T21:59:01.096Z,101777.00
2022-10-04T22:01:27.673Z,101772.00
2022-10-04T22:03:54.359Z,101773.00
2022-10-04T22:06:20.767Z,101767.00
2022-10-04T22:08:47.244Z,101767.00
2022-10-04T22:11:14.107Z,101769.00
2022-10-04T22:13:44.648Z,101764.00
2022-10-04T22:16:11.264Z,101770.00
2022-10-04T22:18:37.703Z,101760.00
2022-10-04T22:21:04.321Z,101759.00
2022-10-04T22:23:38.124Z,101756.00
2022-10-04T22:26:15.305Z,101745.00
2022-10-04T22:28:43.507Z,101736.00
2022-10-04T22:31:11.595Z,101739.00
2022-10-04T22:33:39.146Z,101742.00
2022-10-04T22:36:12.414Z,101726.00
2022-10-04T22:38:39.077Z,101739.00
2022-10-04T22:41:09.439Z,101739.00
2022-10-04T22:43:36.316Z,101736.00
2022-10-04T22:46:02.866Z,101732.00
2022-10-04T22:48:29.326Z,101722.00
2022-10-04T22:50:55.788Z,101732.00
2022-10-04T22:53:22.860Z,101735.00
2022-10-04T22:55:50.451Z,101728.00
2022-10-04T22:58:17.020Z,101723.00
2022-10-04T23:00:44.594Z,101728.00
2022-10-04T23:03:16.280Z,101730.00
2022-10-04T23:05:43.232Z,101724.00
2022-10-04T23:08:09.614Z,101721.00
2022-10-04T23:10:36.046Z,101723.00
2022-10-04T23:13:02.500Z,101726.00
2022-10-04T23:15:28.865Z,101717.00
2022-10-04T23:17:55.500Z,101727.00
2022-10-04T23:20:21.986Z,101720.00
2022-10-04T23:22:49.477Z,101720.00
2022-10-04T23:25:18.011Z,101731.00
2022-10-04T23:27:44.896Z,101726.00
2022-10-04T23:30:18.849Z,101723.00
2022-10-04T23:32:46.438Z,101722.00
2022-10-04T23:35:18.726Z,101725.00
2022-10-04T23:37:45.588Z,101719.00
2022-10-04T23:40:13.446Z,101713.00
2022-10-04T23:42:40.017Z,101710.00
2022-10-04T23:45:13.441Z,101708.00
2022-10-04T23:47:39.882Z,101699.00
2022-10-04T23:50:24.620Z,101708.00
2022-10-04T23:52:52.253Z,101712.00
2022-10-04T23:55:20.584Z,101716.00
2022-10-04T23:57:47.038Z,101706.00
